Time;durP1;ratioP1;P1;durP2;ratioP2;P2;SDS_P1;SDS_P2;PMS_P1;PMS_P2;Temp;Humidity;BMP_temperature;BMP_pressure;BME280_temperature;BME280_humidity;BME280_pressure;Samples;Min_cycle;Max_cycle;Signal;HPM_P1;HPM_P2
2023/05/02 00:00:33;;;;;;;0.30;0.30;;;11.50;99.90;;;;;;5028414;28;20121;-64
2023/05/02 00:02:59;;;;;;;0.75;0.47;;;11.50;99.90;;;;;;5032026;28;20037;-64
2023/05/02 00:05:25;;;;;;;0.00;0.00;;;11.40;99.90;;;;;;5020025;28;20042;-64
2023/05/02 00:07:51;;;;;;;0.20;0.20;;;11.40;99.90;;;;;;5024889;28;20037;-64
2023/05/02 00:10:17;;;;;;;0.00;0.00;;;11.30;99.90;;;;;;5023267;28;20092;-64
2023/05/02 00:12:43;;;;;;;0.00;0.00;;;11.30;99.90;;;;;;5013737;28;20049;-64
2023/05/02 00:15:09;;;;;;;0.00;0.00;;;11.30;99.90;;;;;;5014011;28;20050;-63
2023/05/02 00:17:35;;;;;;;0.10;0.10;;;11.30;99.90;;;;;;5024653;28;20128;-64
2023/05/02 00:20:03;;;;;;;0.00;0.00;;;11.30;99.90;;;;;;5022888;28;20046;-64
2023/05/02 00:22:29;;;;;;;0.00;0.00;;;11.30;99.90;;;;;;5014419;28;20081;-64
2023/05/02 00:24:58;;;;;;;0.00;0.00;;;11.30;99.90;;;;;;5013937;28;20049;-64
2023/05/02 00:27:24;;;;;;;0.00;0.00;;;11.30;99.90;;;;;;5017436;28;20132;-64
2023/05/02 00:29:51;;;;;;;0.03;0.03;;;11.30;99.90;;;;;;5013696;28;20046;-64
2023/05/02 00:32:17;;;;;;;0.00;0.00;;;11.30;99.90;;;;;;5019502;28;20041;-64
2023/05/02 00:34:43;;;;;;;0.10;0.10;;;11.40;99.90;;;;;;5029263;28;20448;-64
2023/05/02 00:37:08;;;;;;;0.00;0.00;;;11.30;99.90;;;;;;5022701;28;20128;-64
2023/05/02 00:39:34;;;;;;;0.10;0.10;;;11.30;99.90;;;;;;5009951;28;20492;-64
2023/05/02 00:42:00;;;;;;;0.00;0.00;;;11.30;99.90;;;;;;5022373;28;20057;-64
2023/05/02 00:44:26;;;;;;;0.00;0.00;;;11.30;99.90;;;;;;5024394;28;20049;-63
2023/05/02 00:46:55;;;;;;;0.03;0.03;;;11.30;99.90;;;;;;5020037;28;20619;-64
2023/05/02 00:49:21;;;;;;;0.28;0.22;;;11.30;99.90;;;;;;5016593;28;20088;-63
2023/05/02 00:51:47;;;;;;;0.00;0.00;;;11.20;99.90;;;;;;5016321;28;20517;-64
2023/05/02 00:54:13;;;;;;;0.00;0.00;;;11.10;99.90;;;;;;5030166;28;20045;-63
2023/05/02 00:56:39;;;;;;;0.13;0.13;;;11.00;99.90;;;;;;5024700;28;20044;-64
2023/05/02 00:59:05;;;;;;;1.02;0.85;;;11.00;99.90;;;;;;5013392;28;20474;-64
2023/05/02 01:01:53;;;;;;;0.00;0.00;;;11.00;99.90;;;;;;5011683;28;20042;-63
2023/05/02 01:04:43;;;;;;;0.40;0.40;;;10.90;99.90;;;;;;5009701;28;20042;-63
2023/05/02 01:07:27;;;;;;;0.00;0.00;;;10.90;99.90;;;;;;5011515;28;20128;-63
2023/05/02 01:10:14;;;;;;;0.00;0.00;;;10.70;99.90;;;;;;5011394;28;20030;-64
2023/05/02 01:13:02;;;;;;;2.92;1.55;;;10.70;99.90;;;;;;5018282;28;20041;-63
2023/05/02 01:15:30;;;;;;;0.32;0.32;;;10.70;99.90;;;;;;5016156;28;20065;-63
2023/05/02 01:17:59;;;;;;;2.90;1.30;;;10.70;99.90;;;;;;5018456;28;20045;-63
2023/05/02 01:20:27;;;;;;;0.08;0.08;;;10.60;99.90;;;;;;5019873;28;20054;-63
2023/05/02 01:22:55;;;;;;;0.00;0.00;;;10.50;99.90;;;;;;5018977;28;20119;-63
2023/05/02 01:25:32;;;;;;;0.00;0.00;;;10.40;99.90;;;;;;5013731;28;20428;-63
2023/05/02 01:28:30;;;;;;;0.13;0.13;;;10.50;99.90;;;;;;5026014;28;20030;-63
2023/05/02 01:30:56;;;;;;;0.10;0.10;;;10.50;99.90;;;;;;5016849;28;20045;-64
2023/05/02 01:33:24;;;;;;;2.40;0.90;;;10.40;99.90;;;;;;5018770;28;20541;-64
2023/05/02 01:35:51;;;;;;;0.20;0.20;;;10.30;99.90;;;;;;5017757;28;20081;-63
2023/05/02 01:38:19;;;;;;;0.20;0.20;;;10.30;99.90;;;;;;5018076;28;20532;-63
2023/05/02 01:40:46;;;;;;;2.28;0.47;;;10.30;99.90;;;;;;5017848;28;20053;-63
2023/05/02 01:43:13;;;;;;;0.47;0.43;;;10.30;99.90;;;;;;5019417;28;20042;-63
2023/05/02 01:45:42;;;;;;;0.30;0.30;;;10.20;99.90;;;;;;5015281;28;20091;-63
2023/05/02 01:48:09;;;;;;;0.10;0.10;;;10.20;99.90;;;;;;5009842;28;20054;-63
2023/05/02 01:50:36;;;;;;;0.40;0.40;;;10.20;99.90;;;;;;5015418;28;20053;-63
2023/05/02 01:53:03;;;;;;;0.38;0.38;;;10.10;99.90;;;;;;5012948;28;20413;-64
2023/05/02 01:55:29;;;;;;;0.08;0.08;;;10.10;99.90;;;;;;5015631;28;20481;-63
2023/05/02 01:57:56;;;;;;;0.90;0.90;;;10.10;99.90;;;;;;5018666;28;20037;-63
2023/05/02 02:00:24;;;;;;;0.47;0.47;;;10.10;99.90;;;;;;5018685;28;20056;-64
2023/05/02 02:02:52;;;;;;;2.00;1.05;;;10.10;99.90;;;;;;5016884;28;20144;-63
2023/05/02 02:05:21;;;;;;;1.02;0.70;;;10.00;99.90;;;;;;5013397;28;20053;-63
2023/05/02 02:07:47;;;;;;;0.20;0.20;;;10.10;99.90;;;;;;5015170;28;20125;-63
2023/05/02 02:10:12;;;;;;;0.40;0.40;;;10.10;99.90;;;;;;5016761;28;20121;-63
2023/05/02 02:12:46;;;;;;;0.00;0.00;;;10.10;99.90;;;;;;5008653;28;21732;-63
2023/05/02 02:15:37;;;;;;;2.25;0.57;;;10.00;99.90;;;;;;5014946;28;20436;-63
2023/05/02 02:18:12;;;;;;;1.38;1.27;;;9.80;99.90;;;;;;5014443;28;20058;-63
2023/05/02 02:20:41;;;;;;;1.05;1.00;;;9.90;99.90;;;;;;5014423;28;20107;-63
2023/05/02 02:23:08;;;;;;;0.55;0.55;;;9.90;99.90;;;;;;5022846;28;20541;-63
2023/05/02 02:25:36;;;;;;;1.55;1.35;;;9.80;99.90;;;;;;5022727;28;20213;-63
2023/05/02 02:28:02;;;;;;;4.47;0.95;;;9.80;99.90;;;;;;5014152;28;20060;-63
2023/05/02 02:30:27;;;;;;;0.10;0.10;;;9.80;99.90;;;;;;5019045;28;20394;-63
2023/05/02 02:32:53;;;;;;;0.20;0.20;;;9.70;99.90;;;;;;5023609;28;20393;-63
2023/05/02 02:35:19;;;;;;;0.80;0.77;;;9.80;99.90;;;;;;5024576;28;20046;-63
2023/05/02 02:37:46;;;;;;;0.13;0.13;;;9.70;99.90;;;;;;5022023;28;20476;-63
2023/05/02 02:40:28;;;;;;;0.63;0.63;;;9.70;99.90;;;;;;5017032;28;20153;-63
2023/05/02 02:43:19;;;;;;;0.45;0.45;;;9.80;99.90;;;;;;5022897;28;20135;-63
2023/05/02 02:46:11;;;;;;;0.00;0.00;;;9.80;99.90;;;;;;5020575;28;20042;-63
2023/05/02 02:48:48;;;;;;;1.65;0.70;;;9.70;99.90;;;;;;5024541;28;20069;-63
2023/05/02 02:51:24;;;;;;;0.20;0.20;;;9.60;99.90;;;;;;5018556;28;20049;-63
2023/05/02 02:54:19;;;;;;;0.43;0.43;;;9.60;99.90;;;;;;5017915;28;20417;-63
2023/05/02 02:56:48;;;;;;;2.53;1.85;;;9.60;99.90;;;;;;5018158;28;20050;-63
2023/05/02 02:59:19;;;;;;;0.00;0.00;;;9.70;99.90;;;;;;5016482;28;20405;-63
2023/05/02 03:01:52;;;;;;;2.13;0.60;;;9.70;99.90;;;;;;5022848;28;20045;-63
2023/05/02 03:04:19;;;;;;;0.00;0.00;;;9.60;99.90;;;;;;5014208;28;20485;-63
2023/05/02 03:06:44;;;;;;;0.40;0.40;;;9.50;99.90;;;;;;5022317;28;20041;-63
2023/05/02 03:09:19;;;;;;;0.60;0.55;;;9.50;99.90;;;;;;5022702;28;20040;-63
2023/05/02 03:11:45;;;;;;;0.32;0.32;;;9.50;99.90;;;;;;5020270;28;20045;-63
2023/05/02 03:14:11;;;;;;;0.20;0.20;;;9.50;99.90;;;;;;5014559;28;20374;-63
2023/05/02 03:16:40;;;;;;;0.10;0.10;;;9.50;99.90;;;;;;5017831;28;20075;-63
2023/05/02 03:19:07;;;;;;;0.10;0.10;;;9.50;99.90;;;;;;5028465;28;20433;-63
2023/05/02 03:21:34;;;;;;;0.08;0.08;;;9.50;99.90;;;;;;5025398;28;20042;-64
2023/05/02 03:24:00;;;;;;;0.30;0.30;;;9.50;99.90;;;;;;5019681;28;20090;-63
2023/05/02 03:26:27;;;;;;;0.15;0.15;;;9.50;99.90;;;;;;5026589;28;20136;-63
2023/05/02 03:28:53;;;;;;;4.13;0.70;;;9.50;99.90;;;;;;5024315;28;20049;-63
2023/05/02 03:31:18;;;;;;;0.03;0.03;;;9.50;99.90;;;;;;5016253;28;20054;-63
2023/05/02 03:33:45;;;;;;;0.00;0.00;;;9.50;99.90;;;;;;5020611;28;20052;-63
2023/05/02 03:36:10;;;;;;;0.20;0.20;;;9.40;99.90;;;;;;5024674;28;20100;-63
2023/05/02 03:38:36;;;;;;;0.30;0.30;;;9.40;99.90;;;;;;5020237;28;20153;-63
2023/05/02 03:41:02;;;;;;;0.00;0.00;;;9.40;99.90;;;;;;5023691;28;20033;-63
2023/05/02 03:43:28;;;;;;;0.10;0.10;;;9.50;99.90;;;;;;5018080;28;20042;-63
2023/05/02 03:45:54;;;;;;;0.68;0.68;;;9.50;99.90;;;;;;5021788;28;20068;-64
2023/05/02 03:48:19;;;;;;;0.10;0.10;;;9.40;99.90;;;;;;5022674;28;20049;-63
2023/05/02 03:50:45;;;;;;;0.00;0.00;;;9.40;99.90;;;;;;5017917;28;20042;-63
2023/05/02 03:53:11;;;;;;;0.00;0.00;;;9.30;99.90;;;;;;5022982;28;20455;-63
2023/05/02 03:55:40;;;;;;;0.10;0.10;;;9.30;99.90;;;;;;5025316;28;20079;-63
2023/05/02 03:58:10;;;;;;;0.10;0.10;;;9.40;99.90;;;;;;5028955;28;20053;-63
2023/05/02 04:00:35;;;;;;;2.72;1.05;;;9.30;99.90;;;;;;5017309;28;20818;-63
2023/05/02 04:03:01;;;;;;;0.10;0.10;;;9.30;99.90;;;;;;5022057;28;20087;-63
2023/05/02 04:05:27;;;;;;;0.50;0.50;;;9.20;99.90;;;;;;5027214;28;20103;-63
2023/05/02 04:07:54;;;;;;;0.47;0.47;;;9.20;99.90;;;;;;5017395;28;20056;-63
2023/05/02 04:10:19;;;;;;;0.22;0.22;;;9.20;99.90;;;;;;5026210;28;20054;-63
2023/05/02 04:12:45;;;;;;;0.00;0.00;;;9.20;99.90;;;;;;5024259;28;20404;-63
2023/05/02 04:15:11;;;;;;;0.00;0.00;;;9.20;99.90;;;;;;5018671;28;20844;-63
2023/05/02 04:17:37;;;;;;;0.50;0.43;;;9.10;99.90;;;;;;5012998;28;20051;-63
2023/05/02 04:20:03;;;;;;;0.20;0.20;;;9.10;99.90;;;;;;5017259;28;20662;-63
2023/05/02 04:22:29;;;;;;;0.00;0.00;;;9.10;99.90;;;;;;5016852;28;20050;-63
2023/05/02 04:24:55;;;;;;;0.80;0.80;;;9.10;99.90;;;;;;5011729;28;20051;-63
2023/05/02 04:27:20;;;;;;;0.00;0.00;;;9.10;99.90;;;;;;5023874;28;20033;-63
2023/05/02 04:29:50;;;;;;;2.38;1.42;;;9.10;99.90;;;;;;5017928;28;20531;-63
2023/05/02 04:32:16;;;;;;;0.00;0.00;;;9.10;99.90;;;;;;5015825;28;20072;-63
2023/05/02 04:34:41;;;;;;;0.00;0.00;;;9.10;99.90;;;;;;5022568;28;20042;-63
2023/05/02 04:37:07;;;;;;;0.82;0.82;;;9.10;99.90;;;;;;5016809;28;20042;-63
2023/05/02 04:39:33;;;;;;;0.10;0.10;;;9.10;99.90;;;;;;5015980;28;20041;-63
2023/05/02 04:42:00;;;;;;;0.00;0.00;;;9.20;99.90;;;;;;5011183;28;20089;-63
2023/05/02 04:44:26;;;;;;;0.77;0.47;;;9.10;99.90;;;;;;5014912;28;20046;-63
2023/05/02 04:46:51;;;;;;;0.10;0.10;;;9.10;99.90;;;;;;5018972;28;20124;-63
2023/05/02 04:49:17;;;;;;;0.03;0.03;;;9.10;99.90;;;;;;5015121;28;20042;-63
2023/05/02 04:51:43;;;;;;;0.00;0.00;;;9.10;99.90;;;;;;5013003;28;20037;-63
2023/05/02 04:54:09;;;;;;;0.55;0.55;;;9.10;99.90;;;;;;5020159;28;20488;-63
2023/05/02 04:56:35;;;;;;;0.00;0.00;;;9.10;99.90;;;;;;5018807;28;20079;-63
2023/05/02 04:59:00;;;;;;;0.10;0.10;;;9.10;99.90;;;;;;5016127;28;20456;-63
2023/05/02 05:01:29;;;;;;;0.20;0.20;;;9.10;99.90;;;;;;5023988;28;20117;-63
2023/05/02 05:03:55;;;;;;;0.30;0.30;;;9.10;99.90;;;;;;5016053;28;20041;-63
2023/05/02 05:06:21;;;;;;;0.10;0.10;;;9.10;99.90;;;;;;5018654;28;20140;-63
2023/05/02 05:08:47;;;;;;;0.05;0.05;;;9.00;99.90;;;;;;5010549;28;20034;-63
2023/05/02 05:11:14;;;;;;;0.08;0.08;;;9.10;99.90;;;;;;5020138;28;20068;-63
2023/05/02 05:13:40;;;;;;;0.00;0.00;;;9.00;99.90;;;;;;5018086;28;20119;-63
2023/05/02 05:16:07;;;;;;;3.72;1.08;;;9.10;99.90;;;;;;5016934;28;20107;-63
2023/05/02 05:18:39;;;;;;;0.30;0.30;;;9.10;99.90;;;;;;5019253;28;20038;-63
2023/05/02 05:21:08;;;;;;;0.20;0.20;;;9.10;99.90;;;;;;5026525;28;20049;-63
2023/05/02 05:23:35;;;;;;;0.10;0.10;;;9.10;99.90;;;;;;5013406;28;20132;-63
2023/05/02 05:26:11;;;;;;;0.17;0.17;;;9.20;99.90;;;;;;5019518;28;20087;-63
2023/05/02 05:28:37;;;;;;;0.00;0.00;;;9.20;99.90;;;;;;5020591;28;20401;-64
2023/05/02 05:31:07;;;;;;;0.30;0.30;;;9.20;99.90;;;;;;5015982;28;20046;-63
2023/05/02 05:33:34;;;;;;;0.10;0.10;;;9.20;99.90;;;;;;5026045;28;20038;-63
2023/05/02 05:36:03;;;;;;;0.10;0.10;;;9.20;99.90;;;;;;5023171;28;20472;-63
2023/05/02 05:38:29;;;;;;;0.00;0.00;;;9.20;99.90;;;;;;5017626;28;20069;-63
2023/05/02 05:40:55;;;;;;;0.00;0.00;;;9.30;99.90;;;;;;5019338;28;20073;-63
2023/05/02 05:43:20;;;;;;;0.30;0.30;;;9.30;99.90;;;;;;5017886;28;20470;-63
2023/05/02 05:45:46;;;;;;;0.00;0.00;;;9.40;99.90;;;;;;5014149;28;20044;-62
2023/05/02 05:48:11;;;;;;;0.63;0.63;;;9.40;99.90;;;;;;5022137;28;20050;-62
2023/05/02 05:50:37;;;;;;;0.10;0.10;;;9.40;99.90;;;;;;5021703;28;20049;-62
2023/05/02 05:53:02;;;;;;;24.95;0.98;;;9.40;99.90;;;;;;5021606;28;20148;-61
2023/05/02 05:55:28;;;;;;;0.93;0.50;;;9.40;99.90;;;;;;5014415;28;20557;-62
2023/05/02 05:57:54;;;;;;;0.15;0.15;;;9.30;99.90;;;;;;5025630;28;20312;-62
2023/05/02 06:00:19;;;;;;;2.50;0.38;;;9.40;99.90;;;;;;5013068;28;20690;-63
2023/05/02 06:02:45;;;;;;;4.68;1.30;;;9.30;99.90;;;;;;5027302;28;20038;-63
2023/05/02 06:05:11;;;;;;;0.10;0.10;;;9.40;99.90;;;;;;5030597;28;20041;-63
2023/05/02 06:07:36;;;;;;;0.10;0.10;;;9.30;99.90;;;;;;5019974;28;20042;-63
2023/05/02 06:10:02;;;;;;;0.82;0.82;;;9.40;99.90;;;;;;5025739;28;20045;-63
2023/05/02 06:12:27;;;;;;;0.00;0.00;;;9.40;99.90;;;;;;5018315;28;20061;-63
2023/05/02 06:14:53;;;;;;;0.10;0.10;;;9.40;99.90;;;;;;5026332;28;20164;-63
2023/05/02 06:17:18;;;;;;;0.20;0.20;;;9.50;99.90;;;;;;5014447;28;20382;-63
2023/05/02 06:19:44;;;;;;;0.98;0.85;;;9.50;99.90;;;;;;5024129;28;20492;-63
2023/05/02 06:22:13;;;;;;;0.00;0.00;;;9.50;99.90;;;;;;5021851;28;20064;-63
2023/05/02 06:24:38;;;;;;;0.35;0.35;;;9.50;99.90;;;;;;5035548;28;20040;-63
2023/05/02 06:27:04;;;;;;;0.68;0.68;;;9.60;99.90;;;;;;5013981;28;20053;-63
2023/05/02 06:29:29;;;;;;;0.32;0.32;;;9.60;99.90;;;;;;5019329;28;20033;-63
2023/05/02 06:31:55;;;;;;;0.20;0.20;;;9.60;99.90;;;;;;5014072;28;20042;-63
2023/05/02 06:34:21;;;;;;;0.10;0.10;;;9.60;99.90;;;;;;5017352;28;20049;-61
2023/05/02 06:36:47;;;;;;;0.80;0.80;;;9.70;99.90;;;;;;5012508;28;20129;-63
2023/05/02 06:39:12;;;;;;;0.38;0.25;;;9.70;99.90;;;;;;5017848;28;20046;-63
2023/05/02 06:41:38;;;;;;;0.00;0.00;;;9.70;99.90;;;;;;5021775;28;20073;-62
2023/05/02 06:44:04;;;;;;;0.00;0.00;;;9.70;99.90;;;;;;5012306;28;20049;-62
2023/05/02 06:46:30;;;;;;;0.15;0.15;;;9.70;99.90;;;;;;5014310;28;20052;-62
2023/05/02 06:48:56;;;;;;;0.55;0.52;;;9.70;99.90;;;;;;5015128;28;20038;-62
2023/05/02 06:51:21;;;;;;;0.00;0.00;;;9.70;99.90;;;;;;5019208;28;20599;-62
2023/05/02 06:53:47;;;;;;;0.10;0.10;;;9.80;99.90;;;;;;5026190;28;20160;-62
2023/05/02 06:56:12;;;;;;;0.10;0.10;;;9.90;99.90;;;;;;5021745;28;20516;-62
2023/05/02 06:58:38;;;;;;;0.08;0.08;;;9.80;99.90;;;;;;5012229;28;20044;-62
2023/05/02 07:01:04;;;;;;;0.00;0.00;;;10.00;99.90;;;;;;5019709;28;20329;-62
2023/05/02 07:03:29;;;;;;;0.00;0.00;;;10.30;99.90;;;;;;5018691;28;21289;-62
2023/05/02 07:05:55;;;;;;;0.52;0.45;;;10.30;99.90;;;;;;5015512;28;20045;-62
2023/05/02 07:08:22;;;;;;;0.38;0.38;;;10.40;99.90;;;;;;5014675;28;20500;-62
2023/05/02 07:10:49;;;;;;;0.88;0.82;;;10.50;99.90;;;;;;5019540;28;20060;-62
2023/05/02 07:13:14;;;;;;;0.00;0.00;;;10.50;99.90;;;;;;5017560;28;20506;-62
2023/05/02 07:15:40;;;;;;;0.00;0.00;;;10.40;99.90;;;;;;5021801;28;20042;-62
2023/05/02 07:18:06;;;;;;;0.10;0.10;;;10.30;99.90;;;;;;5018525;28;20546;-63
2023/05/02 07:20:31;;;;;;;3.65;0.65;;;10.30;99.90;;;;;;5011820;28;20044;-62
2023/05/02 07:22:57;;;;;;;0.57;0.57;;;10.30;99.90;;;;;;5013116;28;20826;-62
2023/05/02 07:25:22;;;;;;;0.32;0.32;;;10.20;99.90;;;;;;5015091;28;20111;-62
2023/05/02 07:27:48;;;;;;;1.20;1.10;;;10.30;99.90;;;;;;5014504;28;20042;-62
2023/05/02 07:30:14;;;;;;;0.30;0.30;;;10.40;99.90;;;;;;5011929;28;20038;-62
2023/05/02 07:32:39;;;;;;;0.10;0.10;;;10.30;99.90;;;;;;5010948;28;20825;-62
2023/05/02 07:35:06;;;;;;;0.35;0.35;;;10.40;99.90;;;;;;5011406;28;20136;-62
2023/05/02 07:37:33;;;;;;;0.40;0.40;;;10.40;99.90;;;;;;5018342;28;20037;-62
2023/05/02 07:39:59;;;;;;;0.00;0.00;;;10.30;99.90;;;;;;5014229;28;20042;-62
2023/05/02 07:42:29;;;;;;;0.00;0.00;;;10.30;99.90;;;;;;5026202;28;20067;-63
2023/05/02 07:44:54;;;;;;;0.08;0.08;;;10.30;99.90;;;;;;5023868;28;20408;-62
2023/05/02 07:47:20;;;;;;;0.10;0.10;;;10.40;99.90;;;;;;5020344;28;20037;-62
2023/05/02 07:49:50;;;;;;;0.28;0.28;;;10.30;99.90;;;;;;5015982;28;20038;-62
2023/05/02 07:52:15;;;;;;;0.43;0.43;;;10.30;99.90;;;;;;5014481;28;20587;-63
2023/05/02 07:54:41;;;;;;;0.00;0.00;;;10.30;99.90;;;;;;5012017;28;20042;-62
2023/05/02 07:57:07;;;;;;;0.00;0.00;;;10.30;99.90;;;;;;5013977;28;20076;-62
2023/05/02 07:59:33;;;;;;;0.10;0.10;;;10.40;99.90;;;;;;5012586;28;20397;-62
2023/05/02 08:01:58;;;;;;;0.00;0.00;;;10.50;99.90;;;;;;5011535;28;20061;-63
2023/05/02 08:04:25;;;;;;;0.00;0.00;;;10.50;99.90;;;;;;5004802;28;20049;-63
2023/05/02 08:06:50;;;;;;;0.00;0.00;;;10.40;99.90;;;;;;5014180;28;20038;-62
2023/05/02 08:09:16;;;;;;;0.05;0.05;;;10.40;99.90;;;;;;5012291;28;20056;-62
2023/05/02 08:11:41;;;;;;;0.57;0.57;;;10.30;99.90;;;;;;5008054;28;20397;-62
2023/05/02 08:14:07;;;;;;;0.30;0.30;;;10.30;99.90;;;;;;5008072;28;20042;-62
2023/05/02 08:16:32;;;;;;;0.50;0.50;;;10.30;99.90;;;;;;5011286;28;20042;-63
2023/05/02 08:18:58;;;;;;;0.00;0.00;;;10.30;99.90;;;;;;5014762;28;20147;-62
2023/05/02 08:21:23;;;;;;;0.00;0.00;;;10.40;99.90;;;;;;5016478;28;20488;-63
2023/05/02 08:23:49;;;;;;;0.00;0.00;;;10.40;99.90;;;;;;5013318;28;20073;-62
2023/05/02 08:26:17;;;;;;;0.00;0.00;;;10.50;99.90;;;;;;5014368;28;20049;-62
2023/05/02 08:28:43;;;;;;;0.08;0.08;;;10.50;99.90;;;;;;5018340;28;20042;-63
2023/05/02 08:31:08;;;;;;;0.00;0.00;;;10.60;99.90;;;;;;5007483;28;20054;-63
2023/05/02 08:33:34;;;;;;;0.05;0.05;;;10.60;99.90;;;;;;5007983;28;20041;-62
2023/05/02 08:36:00;;;;;;;0.10;0.10;;;10.70;99.90;;;;;;5008003;28;20045;-63
2023/05/02 08:38:25;;;;;;;0.55;0.10;;;10.60;99.90;;;;;;5008951;28;20037;-63
2023/05/02 08:40:51;;;;;;;0.00;0.00;;;10.70;99.90;;;;;;5016764;28;20461;-62
2023/05/02 08:43:17;;;;;;;0.00;0.00;;;10.70;99.90;;;;;;5010142;28;20038;-62
2023/05/02 08:45:43;;;;;;;0.10;0.10;;;10.70;99.90;;;;;;5020950;28;20045;-63
2023/05/02 08:48:12;;;;;;;0.00;0.00;;;10.60;99.90;;;;;;5007018;28;20048;-63
2023/05/02 08:50:44;;;;;;;0.00;0.00;;;10.50;99.90;;;;;;5008622;28;20053;-62
2023/05/02 08:53:10;;;;;;;0.00;0.00;;;10.40;99.90;;;;;;5016401;28;20100;-63
2023/05/02 08:55:40;;;;;;;0.00;0.00;;;10.50;99.90;;;;;;5020938;28;20391;-63
2023/05/02 08:58:09;;;;;;;0.00;0.00;;;10.60;99.90;;;;;;5009256;28;20140;-62
2023/05/02 09:00:42;;;;;;;0.10;0.10;;;10.70;99.90;;;;;;5012602;28;20057;-62
2023/05/02 09:03:25;;;;;;;0.10;0.10;;;10.80;99.90;;;;;;5020495;28;20457;-62
2023/05/02 09:06:08;;;;;;;1.25;0.47;;;10.90;99.90;;;;;;5009697;28;20180;-63
2023/05/02 09:08:34;;;;;;;0.00;0.00;;;11.00;99.90;;;;;;5013525;28;20236;-63
2023/05/02 09:11:02;;;;;;;0.30;0.30;;;11.10;99.90;;;;;;5024477;28;20154;-62
2023/05/02 09:13:39;;;;;;;0.00;0.00;;;11.20;99.90;;;;;;5017899;28;20118;-62
2023/05/02 09:16:10;;;;;;;0.08;0.08;;;11.10;99.90;;;;;;5014944;28;20045;-63
2023/05/02 09:18:38;;;;;;;0.00;0.00;;;11.20;99.90;;;;;;5016711;28;20041;-62
2023/05/02 09:21:13;;;;;;;0.00;0.00;;;11.40;99.90;;;;;;5015603;28;20060;-62
2023/05/02 09:23:51;;;;;;;0.00;0.00;;;11.60;99.90;;;;;;5015915;28;20537;-63
2023/05/02 09:26:30;;;;;;;0.00;0.00;;;11.70;99.90;;;;;;5011143;28;20050;-62
2023/05/02 09:28:57;;;;;;;0.00;0.00;;;11.80;99.90;;;;;;5014958;28;20038;-62
2023/05/02 09:31:24;;;;;;;0.00;0.00;;;11.80;99.90;;;;;;5012972;28;20560;-63
2023/05/02 09:33:51;;;;;;;0.00;0.00;;;11.80;99.90;;;;;;5021382;28;20088;-62
2023/05/02 09:36:18;;;;;;;0.00;0.00;;;11.70;99.90;;;;;;5012388;28;20054;-63
2023/05/02 09:38:46;;;;;;;0.00;0.00;;;11.80;99.90;;;;;;5018303;28;20528;-62
2023/05/02 09:41:11;;;;;;;0.00;0.00;;;11.90;99.90;;;;;;5019794;28;20050;-62
2023/05/02 09:43:37;;;;;;;0.10;0.10;;;12.00;99.90;;;;;;5017009;28;20026;-62
2023/05/02 09:46:07;;;;;;;0.03;0.03;;;12.00;99.90;;;;;;5011923;28;20108;-62
2023/05/02 09:48:56;;;;;;;0.22;0.22;;;12.10;99.90;;;;;;5026322;28;20045;-62
2023/05/02 09:51:23;;;;;;;0.00;0.00;;;12.40;99.90;;;;;;5022008;28;20044;-62
2023/05/02 09:53:50;;;;;;;0.10;0.10;;;12.80;99.90;;;;;;5015494;28;20041;-63
2023/05/02 09:56:16;;;;;;;0.10;0.10;;;13.40;99.90;;;;;;5021679;28;20045;-63
2023/05/02 09:58:42;;;;;;;1.67;0.90;;;14.10;99.90;;;;;;5016155;28;20034;-63
2023/05/02 10:01:14;;;;;;;0.00;0.00;;;14.20;97.30;;;;;;5024295;28;20488;-63
2023/05/02 10:03:40;;;;;;;0.00;0.00;;;13.80;97.90;;;;;;5016101;28;20046;-63
2023/05/02 10:06:08;;;;;;;0.00;0.00;;;13.40;98.10;;;;;;5010586;28;20077;-62
2023/05/02 10:08:34;;;;;;;0.00;0.00;;;13.60;99.90;;;;;;5023231;28;20813;-63
2023/05/02 10:11:04;;;;;;;0.00;0.00;;;13.50;98.90;;;;;;5017984;28;20101;-63
2023/05/02 10:13:33;;;;;;;0.00;0.00;;;13.10;99.40;;;;;;5013166;28;20038;-63
2023/05/02 10:16:00;;;;;;;0.00;0.00;;;12.80;98.80;;;;;;5010212;28;20481;-62
2023/05/02 10:18:27;;;;;;;0.10;0.10;;;12.60;99.90;;;;;;5018335;28;20037;-62
2023/05/02 10:20:58;;;;;;;0.00;0.00;;;12.50;99.90;;;;;;5014400;28;20034;-63
2023/05/02 10:23:26;;;;;;;0.00;0.00;;;12.60;99.90;;;;;;5009563;28;20544;-62
2023/05/02 10:25:52;;;;;;;0.00;0.00;;;12.50;99.90;;;;;;5010417;28;20038;-62
2023/05/02 10:28:19;;;;;;;0.00;0.00;;;12.50;99.90;;;;;;5009929;28;20616;-63
2023/05/02 10:30:45;;;;;;;0.30;0.30;;;12.40;99.90;;;;;;5022549;28;20029;-63
2023/05/02 10:33:13;;;;;;;0.00;0.00;;;12.40;99.90;;;;;;5020740;28;20042;-63
2023/05/02 10:35:43;;;;;;;0.28;0.28;;;12.30;99.90;;;;;;5011246;28;20053;-63
2023/05/02 10:38:09;;;;;;;0.00;0.00;;;12.10;99.90;;;;;;5018182;28;20524;-63
2023/05/02 10:40:35;;;;;;;0.00;0.00;;;12.00;99.90;;;;;;5019029;28;20441;-62
2023/05/02 10:43:02;;;;;;;0.05;0.05;;;12.00;99.90;;;;;;5008883;28;20049;-63
2023/05/02 10:45:36;;;;;;;0.50;0.50;;;12.00;99.90;;;;;;5019953;28;20048;-63
2023/05/02 10:48:14;;;;;;;;;;;12.00;99.90;;;;;;5012163;28;20048;-62
2023/05/02 10:51:02;;;;;;;0.00;0.00;;;12.70;99.90;;;;;;5018751;28;19921;-63
2023/05/02 10:53:33;;;;;;;0.00;0.00;;;12.90;99.90;;;;;;5019140;28;20054;-63
2023/05/02 10:56:17;;;;;;;0.10;0.10;;;12.60;99.90;;;;;;5010276;28;20092;-63
2023/05/02 10:58:44;;;;;;;0.00;0.00;;;12.80;99.90;;;;;;5016441;28;20056;-63
2023/05/02 11:01:28;;;;;;;0.00;0.00;;;13.50;99.90;;;;;;5016577;28;20045;-63
2023/05/02 11:04:10;;;;;;;0.60;0.45;;;13.60;99.90;;;;;;5010363;28;20038;-63
2023/05/02 11:06:55;;;;;;;0.00;0.00;;;13.90;99.90;;;;;;5016666;28;20049;-63
2023/05/02 11:09:23;;;;;;;1.38;1.27;;;14.10;99.90;;;;;;5012186;28;20042;-62
2023/05/02 11:11:51;;;;;;;0.00;0.00;;;13.80;99.90;;;;;;5010189;28;20452;-63
2023/05/02 11:14:29;;;;;;;0.68;0.63;;;13.50;99.90;;;;;;5020034;28;20099;-63
2023/05/02 11:17:02;;;;;;;0.00;0.00;;;13.30;99.90;;;;;;5008735;28;20062;-63
2023/05/02 11:19:30;;;;;;;0.05;0.05;;;13.10;99.90;;;;;;5014808;28;20050;-63
2023/05/02 11:22:17;;;;;;;0.00;0.00;;;13.20;99.90;;;;;;5022294;28;20080;-63
2023/05/02 11:24:46;;;;;;;0.00;0.00;;;13.80;99.90;;;;;;5017780;28;20056;-63
2023/05/02 11:30:05;;;;;;;0.10;0.10;;;13.10;99.90;;;;;;5014593;28;20050;-63
2023/05/02 11:32:43;;;;;;;0.35;0.30;;;13.30;99.90;;;;;;5016008;28;20386;-63
2023/05/02 11:35:19;;;;;;;0.00;0.00;;;13.40;99.90;;;;;;5010033;28;20096;-63
2023/05/02 11:37:55;;;;;;;0.00;0.00;;;13.20;99.90;;;;;;5009021;28;20054;-63
2023/05/02 11:40:22;;;;;;;0.00;0.00;;;13.10;99.90;;;;;;5008760;28;20050;-63
2023/05/02 11:42:48;;;;;;;0.50;0.50;;;13.10;99.90;;;;;;5011234;28;20445;-63
2023/05/02 11:45:14;;;;;;;8.07;0.68;;;13.10;99.90;;;;;;5013986;28;20037;-63
2023/05/02 11:47:41;;;;;;;0.85;0.77;;;13.40;99.90;;;;;;5014371;28;20068;-63
2023/05/02 11:50:08;;;;;;;0.05;0.05;;;13.40;99.90;;;;;;5009067;28;20041;-64
2023/05/02 11:52:44;;;;;;;0.00;0.00;;;13.40;99.90;;;;;;5010321;28;20053;-64
2023/05/02 11:55:12;;;;;;;0.10;0.10;;;13.60;99.90;;;;;;5014901;28;20589;-62
2023/05/02 11:57:38;;;;;;;0.08;0.08;;;14.30;99.90;;;;;;5023813;28;20120;-62
2023/05/02 12:00:06;;;;;;;0.00;0.00;;;14.80;99.90;;;;;;5010767;28;20382;-62
2023/05/02 12:02:58;;;;;;;0.00;0.00;;;15.10;99.90;;;;;;5010402;28;20042;-63
2023/05/02 12:05:30;;;;;;;0.00;0.00;;;14.90;99.90;;;;;;5009026;28;20360;-63
2023/05/02 12:07:56;;;;;;;0.00;0.00;;;14.40;99.40;;;;;;5008675;28;20128;-62
2023/05/02 12:10:21;;;;;;;0.00;0.00;;;14.00;99.90;;;;;;5014987;28;20124;-63
2023/05/02 12:12:47;;;;;;;0.10;0.10;;;13.70;99.90;;;;;;5012821;28;20038;-63
2023/05/02 12:15:13;;;;;;;3.92;1.23;;;13.40;99.90;;;;;;5020609;28;20448;-63
2023/05/02 12:17:51;;;;;;;0.10;0.10;;;13.20;99.90;;;;;;5016186;28;20045;-62
2023/05/02 12:20:17;;;;;;;0.00;0.00;;;13.00;99.90;;;;;;5016402;28;20045;-63
2023/05/02 12:22:43;;;;;;;0.00;0.00;;;12.90;99.90;;;;;;5011039;28;20088;-63
2023/05/02 12:25:09;;;;;;;0.00;0.00;;;12.80;99.90;;;;;;5011405;28;20052;-63
2023/05/02 12:27:34;;;;;;;0.00;0.00;;;12.90;99.90;;;;;;5011563;28;20053;-64
2023/05/02 12:30:01;;;;;;;0.10;0.10;;;13.00;99.90;;;;;;5013878;28;20193;-63
2023/05/02 12:32:31;;;;;;;0.00;0.00;;;13.00;99.90;;;;;;5010268;28;20038;-64
2023/05/02 12:34:58;;;;;;;0.00;0.00;;;13.50;99.90;;;;;;5042059;28;20049;-63
2023/05/02 12:37:25;;;;;;;0.00;0.00;;;13.80;99.90;;;;;;5016611;28;20095;-63
2023/05/02 12:39:52;;;;;;;0.00;0.00;;;13.70;99.60;;;;;;5020651;28;20129;-63
2023/05/02 12:42:20;;;;;;;0.32;0.10;;;13.50;99.90;;;;;;5016027;28;20054;-63
2023/05/02 12:44:47;;;;;;;0.00;0.00;;;13.40;99.90;;;;;;5007798;28;20044;-63
2023/05/02 12:47:14;;;;;;;0.00;0.00;;;13.40;99.90;;;;;;5011437;28;20108;-64
2023/05/02 12:49:55;;;;;;;0.00;0.00;;;13.50;99.20;;;;;;5021610;28;20497;-64
2023/05/02 12:52:42;;;;;;;0.88;0.80;;;14.70;99.90;;;;;;5013768;28;20480;-64
2023/05/02 12:55:17;;;;;;;0.10;0.10;;;15.20;98.60;;;;;;5006920;28;20057;-64
2023/05/02 12:57:43;;;;;;;0.05;0.05;;;15.60;96.40;;;;;;5011355;28;20493;-64
2023/05/02 13:00:09;;;;;;;0.00;0.00;;;16.00;98.60;;;;;;5014064;28;20052;-64